DLH504 EDDM-SBGR
Flight info
| Callsign | DLH504 |
|---|---|
| Flight time | N/A |
| Altitude | 35000 |
| Route | ALG2E ALG Y109 UMTEX Y100 TRA Z69 OLBEN N869 NINTU DCT PIMAK DCT TITVA DCT LACOU DCT URUNA P181 NEA L14 ADINO/N0435F230 L14 ELVAR UN975 SNT/N0444F240 UN741 NELSO/N0486F380 N741 EDUMO/N0486F390 UN741 MERUD/N0484F400 UN741 ERUGU UZ61 REDAD UZ21 VUNOX |
| Aircraft | A359/H-SADE2E3GHIJ1J2J3J4J5M1P2RWXYZ/LB1D1 |
Departure
| Time | N/A |
|---|---|
| Airport | Munich Airport (EDDM) |
Arrival
| Time | 2026-05-01 11:48 |
|---|---|
| Airport | São Paulo/Guarulhos–Governor André Franco Montoro International Airport (SBGR) |
| Time | Latitude | Longitude | Altitude | Speed | Heading |
|---|---|---|---|---|---|
| 2026-05-01 07:23 | 6.37226 | -33.15515 | 34936 ft | 459 kts | 210° |
| 2026-05-01 07:24 | 6.28776 | -33.20053 | 34936 ft | 459 kts | 210° |
| 2026-05-01 07:24 | 6.23137 | -33.23066 | 34939 ft | 459 kts | 210° |
| 2026-05-01 07:25 | 6.17499 | -33.26078 | 34936 ft | 459 kts | 210° |
| 2026-05-01 07:25 | 6.11866 | -33.29089 | 34936 ft | 459 kts | 210° |
| 2026-05-01 07:26 | 6.06232 | -33.32101 | 34935 ft | 459 kts | 210° |
| 2026-05-01 07:26 | 6.00601 | -33.35111 | 34933 ft | 459 kts | 210° |
| 2026-05-01 07:27 | 5.94965 | -33.38123 | 34931 ft | 459 kts | 210° |
| 2026-05-01 07:27 | 5.89335 | -33.41131 | 34931 ft | 459 kts | 210° |
| 2026-05-01 07:28 | 5.83744 | -33.44117 | 34928 ft | 458 kts | 210° |
| 2026-05-01 07:28 | 5.78112 | -33.47124 | 34929 ft | 458 kts | 210° |
| 2026-05-01 07:29 | 5.72484 | -33.50129 | 34932 ft | 458 kts | 210° |
| 2026-05-01 07:29 | 5.66857 | -33.53132 | 34929 ft | 458 kts | 210° |
| 2026-05-01 07:30 | 5.61231 | -33.56134 | 34931 ft | 458 kts | 210° |
| 2026-05-01 07:30 | 5.55612 | -33.59132 | 34929 ft | 457 kts | 210° |
| 2026-05-01 07:31 | 5.49992 | -33.62130 | 34933 ft | 457 kts | 210° |
| 2026-05-01 07:32 | 5.35940 | -33.69622 | 34932 ft | 458 kts | 210° |
| 2026-05-01 07:33 | 5.27497 | -33.74122 | 34925 ft | 458 kts | 210° |
| 2026-05-01 07:33 | 5.19055 | -33.78619 | 34926 ft | 458 kts | 210° |
| 2026-05-01 07:34 | 5.10652 | -33.83095 | 34922 ft | 458 kts | 210° |
| 2026-05-01 07:35 | 5.05030 | -33.86089 | 34923 ft | 458 kts | 209° |
| 2026-05-01 07:35 | 4.99407 | -33.89082 | 34925 ft | 457 kts | 209° |
| 2026-05-01 07:36 | 4.93781 | -33.92076 | 34921 ft | 457 kts | 210° |
| 2026-05-01 07:36 | 4.88159 | -33.95068 | 34923 ft | 458 kts | 210° |
| 2026-05-01 07:37 | 4.79725 | -33.99557 | 34922 ft | 458 kts | 210° |
| 2026-05-01 07:37 | 4.74102 | -34.02549 | 34919 ft | 458 kts | 209° |
| 2026-05-01 07:38 | 4.68476 | -34.05542 | 34919 ft | 459 kts | 209° |
| 2026-05-01 07:39 | 4.59998 | -34.10049 | 34918 ft | 460 kts | 209° |
| 2026-05-01 07:39 | 4.51523 | -34.14554 | 34917 ft | 460 kts | 209° |
| 2026-05-01 07:40 | 4.45872 | -34.17560 | 34917 ft | 459 kts | 209° |
| 2026-05-01 07:40 | 4.40237 | -34.20582 | 34914 ft | 459 kts | 210° |
| 2026-05-01 07:41 | 4.34586 | -34.23616 | 34920 ft | 462 kts | 209° |
| 2026-05-01 07:42 | 4.26119 | -34.28151 | 34913 ft | 462 kts | 209° |
| 2026-05-01 07:42 | 4.20448 | -34.31187 | 34914 ft | 462 kts | 209° |
| 2026-05-01 07:43 | 4.14779 | -34.34220 | 34917 ft | 462 kts | 209° |
| 2026-05-01 07:43 | 4.06281 | -34.38768 | 34917 ft | 461 kts | 209° |
| 2026-05-01 07:44 | 3.94986 | -34.44810 | 34913 ft | 460 kts | 209° |
| 2026-05-01 07:45 | 3.89345 | -34.47828 | 34915 ft | 460 kts | 209° |
| 2026-05-01 07:45 | 3.83717 | -34.50837 | 34916 ft | 458 kts | 209° |
| 2026-05-01 07:46 | 3.78096 | -34.53842 | 34916 ft | 458 kts | 209° |
| 2026-05-01 07:47 | 3.69633 | -34.58367 | 34916 ft | 462 kts | 208° |
| 2026-05-01 07:47 | 3.63958 | -34.61400 | 34914 ft | 462 kts | 208° |
| 2026-05-01 07:48 | 3.55444 | -34.65950 | 34914 ft | 462 kts | 208° |
| 2026-05-01 07:48 | 3.49770 | -34.68984 | 34910 ft | 462 kts | 208° |
| 2026-05-01 07:49 | 3.41264 | -34.73528 | 34906 ft | 461 kts | 208° |
| 2026-05-01 07:50 | 3.35633 | -34.76533 | 34912 ft | 463 kts | 207° |
| 2026-05-01 07:50 | 3.27100 | -34.81089 | 34912 ft | 464 kts | 207° |
| 2026-05-01 07:51 | 3.21410 | -34.84127 | 34914 ft | 463 kts | 207° |
| 2026-05-01 07:52 | 3.12876 | -34.88683 | 34917 ft | 463 kts | 208° |
| 2026-05-01 07:52 | 3.07192 | -34.91717 | 34916 ft | 462 kts | 207° |
| 2026-05-01 07:53 | 2.98687 | -34.96256 | 34912 ft | 462 kts | 207° |
| 2026-05-01 07:53 | 2.93016 | -34.99282 | 34909 ft | 461 kts | 207° |
| 2026-05-01 07:55 | 2.78881 | -35.06822 | 34911 ft | 462 kts | 207° |
| 2026-05-01 07:56 | 2.64714 | -35.14377 | 34912 ft | 462 kts | 207° |
| 2026-05-01 07:57 | 2.56200 | -35.18889 | 34909 ft | 461 kts | 207° |
| 2026-05-01 07:58 | 2.44854 | -35.24906 | 34911 ft | 462 kts | 208° |
| 2026-05-01 07:59 | 2.33533 | -35.30915 | 34911 ft | 460 kts | 208° |
| 2026-05-01 08:00 | 2.16579 | -35.39910 | 34912 ft | 459 kts | 208° |
| 2026-05-01 08:01 | 2.05355 | -35.45863 | 34912 ft | 458 kts | 208° |
| 2026-05-01 08:02 | 1.96917 | -35.50338 | 34912 ft | 458 kts | 208° |
| 2026-05-01 08:03 | 1.88484 | -35.54810 | 34911 ft | 457 kts | 208° |
| 2026-05-01 08:03 | 1.80075 | -35.59269 | 34911 ft | 455 kts | 207° |
| 2026-05-01 08:04 | 1.68914 | -35.65186 | 34910 ft | 454 kts | 207° |
| 2026-05-01 08:05 | 1.61488 | -35.69122 | 34912 ft | 454 kts | 207° |
| 2026-05-01 08:06 | 1.53114 | -35.73561 | 34910 ft | 453 kts | 207° |
| 2026-05-01 08:07 | 1.42038 | -35.79432 | 34913 ft | 450 kts | 207° |
| 2026-05-01 08:08 | 1.33735 | -35.83832 | 34918 ft | 451 kts | 207° |
| 2026-05-01 08:09 | 1.22674 | -35.89693 | 34910 ft | 450 kts | 207° |
| 2026-05-01 08:09 | 1.17134 | -35.92628 | 34910 ft | 451 kts | 207° |
| 2026-05-01 08:10 | 1.06082 | -35.98484 | 34909 ft | 451 kts | 207° |
| 2026-05-01 08:11 | 0.94995 | -36.04358 | 34914 ft | 451 kts | 207° |
| 2026-05-01 08:12 | 0.86677 | -36.08765 | 34914 ft | 451 kts | 207° |
| 2026-05-01 08:13 | 0.78363 | -36.13168 | 34915 ft | 451 kts | 207° |
| 2026-05-01 08:13 | 0.70054 | -36.17570 | 34913 ft | 451 kts | 207° |
| 2026-05-01 08:14 | 0.64550 | -36.20485 | 34910 ft | 450 kts | 207° |
| 2026-05-01 08:14 | 0.59007 | -36.23421 | 34907 ft | 450 kts | 207° |
| 2026-05-01 08:15 | 0.50699 | -36.27822 | 34911 ft | 450 kts | 207° |
| 2026-05-01 08:16 | 0.45165 | -36.30753 | 34911 ft | 451 kts | 207° |
| 2026-05-01 08:16 | 0.39628 | -36.33685 | 34912 ft | 450 kts | 207° |
| 2026-05-01 08:17 | 0.34088 | -36.36620 | 34910 ft | 450 kts | 207° |
| 2026-05-01 08:17 | 0.28548 | -36.39553 | 34913 ft | 451 kts | 207° |
| 2026-05-01 08:18 | 0.23009 | -36.42487 | 34915 ft | 451 kts | 207° |
| 2026-05-01 08:19 | 0.11906 | -36.48367 | 34910 ft | 451 kts | 207° |
| 2026-05-01 08:19 | 0.06359 | -36.51305 | 34913 ft | 452 kts | 207° |
| 2026-05-01 08:20 | 0.00814 | -36.54242 | 34913 ft | 451 kts | 207° |
| 2026-05-01 08:20 | -0.04703 | -36.57163 | 34914 ft | 452 kts | 207° |
| 2026-05-01 08:21 | -0.10266 | -36.60108 | 34913 ft | 453 kts | 207° |
| 2026-05-01 08:21 | -0.15833 | -36.63057 | 34914 ft | 453 kts | 207° |
| 2026-05-01 08:22 | -0.21396 | -36.66003 | 34909 ft | 452 kts | 207° |
| 2026-05-01 08:22 | -0.26964 | -36.68952 | 34911 ft | 453 kts | 207° |
| 2026-05-01 08:23 | -0.32524 | -36.71897 | 34915 ft | 453 kts | 207° |
| 2026-05-01 08:23 | -0.38090 | -36.74845 | 34913 ft | 452 kts | 207° |
| 2026-05-01 08:24 | -0.43658 | -36.77794 | 34912 ft | 453 kts | 207° |
| 2026-05-01 08:24 | -0.49225 | -36.80743 | 34912 ft | 453 kts | 207° |
| 2026-05-01 08:25 | -0.54794 | -36.83692 | 34913 ft | 453 kts | 207° |
| 2026-05-01 08:25 | -0.60363 | -36.86642 | 34913 ft | 453 kts | 207° |
| 2026-05-01 08:26 | -0.65934 | -36.89593 | 34915 ft | 453 kts | 207° |
| 2026-05-01 08:26 | -0.71505 | -36.92543 | 34913 ft | 453 kts | 207° |
| 2026-05-01 08:27 | -0.77072 | -36.95492 | 34910 ft | 453 kts | 207° |
| 2026-05-01 08:27 | -0.82643 | -36.98443 | 34911 ft | 453 kts | 207° |
| 2026-05-01 08:28 | -0.88215 | -37.01395 | 34911 ft | 453 kts | 207° |
| 2026-05-01 08:28 | -0.93779 | -37.04343 | 35072 ft | 460 kts | 207° |
| 2026-05-01 08:29 | -0.99596 | -37.07179 | 35262 ft | 470 kts | 202° |
| 2026-05-01 08:29 | -1.02627 | -37.08453 | 35382 ft | 475 kts | 201° |
| 2026-05-01 08:29 | -1.05700 | -37.09711 | 35489 ft | 480 kts | 201° |
| 2026-05-01 08:29 | -1.08799 | -37.10987 | 35592 ft | 484 kts | 201° |
| 2026-05-01 08:30 | -1.11913 | -37.12289 | 35759 ft | 486 kts | 202° |
| 2026-05-01 08:30 | -1.15031 | -37.13613 | 35942 ft | 488 kts | 202° |
| 2026-05-01 08:30 | -1.18147 | -37.14950 | 36271 ft | 486 kts | 202° |
| 2026-05-01 08:30 | -1.21245 | -37.16288 | 36608 ft | 485 kts | 202° |
| 2026-05-01 08:31 | -1.24344 | -37.17630 | 36835 ft | 485 kts | 202° |
| 2026-05-01 08:31 | -1.27442 | -37.18972 | 37146 ft | 484 kts | 203° |
| 2026-05-01 08:31 | -1.30524 | -37.20307 | 37437 ft | 483 kts | 203° |
| 2026-05-01 08:31 | -1.33610 | -37.21642 | 37681 ft | 483 kts | 203° |
| 2026-05-01 08:32 | -1.36689 | -37.22974 | 38014 ft | 481 kts | 203° |
| 2026-05-01 08:32 | -1.39756 | -37.24301 | 38254 ft | 481 kts | 203° |
| 2026-05-01 08:32 | -1.42829 | -37.25629 | 38453 ft | 481 kts | 202° |
| 2026-05-01 08:32 | -1.45889 | -37.26952 | 38715 ft | 479 kts | 203° |
| 2026-05-01 08:33 | -1.48948 | -37.28275 | 38908 ft | 479 kts | 203° |
| 2026-05-01 08:33 | -1.52000 | -37.29594 | 39098 ft | 478 kts | 203° |
| 2026-05-01 08:33 | -1.55041 | -37.30909 | 39396 ft | 474 kts | 203° |
| 2026-05-01 08:33 | -1.58062 | -37.32216 | 39634 ft | 473 kts | 203° |
| 2026-05-01 08:34 | -1.61077 | -37.33520 | 39800 ft | 472 kts | 203° |
| 2026-05-01 08:34 | -1.64097 | -37.34826 | 39911 ft | 473 kts | 203° |
| 2026-05-01 08:34 | -1.67111 | -37.36129 | 39911 ft | 472 kts | 203° |
| 2026-05-01 08:35 | -1.73137 | -37.38735 | 39910 ft | 472 kts | 203° |
| 2026-05-01 08:35 | -1.79159 | -37.41340 | 39913 ft | 472 kts | 203° |
| 2026-05-01 08:36 | -1.85180 | -37.43945 | 39912 ft | 473 kts | 203° |
| 2026-05-01 08:36 | -1.91227 | -37.46560 | 39907 ft | 474 kts | 203° |
| 2026-05-01 08:37 | -1.97240 | -37.49161 | 39908 ft | 474 kts | 203° |
| 2026-05-01 08:37 | -2.03338 | -37.51799 | 39919 ft | 475 kts | 203° |
| 2026-05-01 08:38 | -2.09359 | -37.54404 | 39914 ft | 475 kts | 203° |
| 2026-05-01 08:38 | -2.15414 | -37.57025 | 39914 ft | 474 kts | 203° |
| 2026-05-01 08:39 | -2.21467 | -37.59644 | 39910 ft | 474 kts | 203° |
| 2026-05-01 08:39 | -2.27513 | -37.62261 | 39915 ft | 474 kts | 203° |
| 2026-05-01 08:40 | -2.36583 | -37.66187 | 39915 ft | 473 kts | 203° |
| 2026-05-01 08:40 | -2.42631 | -37.68805 | 39919 ft | 473 kts | 203° |
| 2026-05-01 08:41 | -2.48670 | -37.71420 | 39917 ft | 473 kts | 203° |
| 2026-05-01 08:41 | -2.54709 | -37.74034 | 39914 ft | 474 kts | 203° |
| 2026-05-01 08:42 | -2.60761 | -37.76655 | 39910 ft | 474 kts | 203° |
| 2026-05-01 08:42 | -2.66810 | -37.79274 | 39909 ft | 474 kts | 203° |
| 2026-05-01 08:43 | -2.72860 | -37.81895 | 39919 ft | 474 kts | 203° |
| 2026-05-01 08:43 | -2.78916 | -37.84519 | 39917 ft | 475 kts | 203° |
| 2026-05-01 08:44 | -2.84974 | -37.87142 | 39917 ft | 474 kts | 203° |
| 2026-05-01 08:44 | -2.91035 | -37.89769 | 39919 ft | 475 kts | 203° |
| 2026-05-01 08:45 | -2.97095 | -37.92394 | 39916 ft | 475 kts | 203° |
| 2026-05-01 08:45 | -3.03159 | -37.95022 | 39914 ft | 475 kts | 203° |
| 2026-05-01 08:46 | -3.09239 | -37.97657 | 39917 ft | 477 kts | 203° |
| 2026-05-01 08:46 | -3.15261 | -38.00323 | 39918 ft | 477 kts | 204° |
| 2026-05-01 08:47 | -3.21274 | -38.03135 | 39916 ft | 477 kts | 205° |
| 2026-05-01 08:47 | -3.27287 | -38.05960 | 39916 ft | 477 kts | 205° |
| 2026-05-01 08:48 | -3.33346 | -38.08782 | 39916 ft | 478 kts | 204° |
| 2026-05-01 08:48 | -3.39321 | -38.11553 | 39919 ft | 477 kts | 204° |
| 2026-05-01 08:49 | -3.45349 | -38.14347 | 39915 ft | 477 kts | 204° |
| 2026-05-01 08:49 | -3.51370 | -38.17138 | 39917 ft | 477 kts | 204° |
| 2026-05-01 08:50 | -3.57404 | -38.19910 | 39922 ft | 477 kts | 204° |
| 2026-05-01 08:50 | -3.63481 | -38.22584 | 39921 ft | 478 kts | 203° |
| 2026-05-01 08:51 | -3.69601 | -38.25264 | 39920 ft | 482 kts | 204° |
| 2026-05-01 08:51 | -3.75735 | -38.27968 | 39921 ft | 482 kts | 204° |
| 2026-05-01 08:52 | -3.81871 | -38.30685 | 39920 ft | 482 kts | 204° |
| 2026-05-01 08:52 | -3.88001 | -38.33402 | 39925 ft | 482 kts | 204° |
| 2026-05-01 08:53 | -3.94146 | -38.36130 | 39927 ft | 485 kts | 205° |
| 2026-05-01 08:53 | -4.00325 | -38.38872 | 39930 ft | 486 kts | 204° |
| 2026-05-01 08:54 | -4.06510 | -38.41631 | 39936 ft | 487 kts | 205° |
| 2026-05-01 08:54 | -4.12697 | -38.44388 | 39936 ft | 487 kts | 205° |
| 2026-05-01 08:55 | -4.18887 | -38.47134 | 39937 ft | 487 kts | 205° |
| 2026-05-01 08:55 | -4.25067 | -38.49877 | 39941 ft | 485 kts | 205° |
| 2026-05-01 08:56 | -4.30187 | -38.52152 | 39942 ft | 484 kts | 205° |
| 2026-05-01 08:56 | -4.36198 | -38.55187 | 39942 ft | 483 kts | 210° |
| 2026-05-01 08:57 | -4.42050 | -38.58512 | 39950 ft | 483 kts | 210° |
| 2026-05-01 08:57 | -4.47943 | -38.61768 | 39950 ft | 484 kts | 206° |
| 2026-05-01 08:58 | -4.54206 | -38.64265 | 39945 ft | 485 kts | 201° |
| 2026-05-01 08:58 | -4.60559 | -38.66547 | 39951 ft | 485 kts | 200° |
| 2026-05-01 08:59 | -4.66933 | -38.68796 | 39949 ft | 486 kts | 200° |
| 2026-05-01 08:59 | -4.73320 | -38.71062 | 39948 ft | 487 kts | 201° |
| 2026-05-01 09:00 | -4.79705 | -38.73338 | 39951 ft | 487 kts | 201° |
| 2026-05-01 09:00 | -4.86096 | -38.75622 | 39951 ft | 488 kts | 201° |
| 2026-05-01 09:01 | -4.92489 | -38.77912 | 39950 ft | 488 kts | 201° |
| 2026-05-01 09:01 | -4.98836 | -38.80194 | 39951 ft | 488 kts | 201° |
| 2026-05-01 09:02 | -5.05227 | -38.82491 | 39953 ft | 488 kts | 201° |
| 2026-05-01 09:02 | -5.11609 | -38.84784 | 39953 ft | 487 kts | 201° |
| 2026-05-01 09:03 | -5.17981 | -38.87075 | 39953 ft | 486 kts | 201° |
| 2026-05-01 09:03 | -5.24349 | -38.89366 | 39952 ft | 486 kts | 201° |
| 2026-05-01 09:04 | -5.30721 | -38.91658 | 39949 ft | 486 kts | 201° |
| 2026-05-01 09:04 | -5.37083 | -38.93946 | 39952 ft | 485 kts | 202° |
| 2026-05-01 09:05 | -5.43421 | -38.96227 | 39954 ft | 483 kts | 202° |
| 2026-05-01 09:05 | -5.49739 | -38.98501 | 39954 ft | 482 kts | 202° |
| 2026-05-01 09:06 | -5.56055 | -39.00775 | 39955 ft | 482 kts | 202° |
| 2026-05-01 09:06 | -5.62372 | -39.03051 | 39957 ft | 482 kts | 202° |
| 2026-05-01 09:07 | -5.68675 | -39.05320 | 39956 ft | 480 kts | 202° |
| 2026-05-01 09:07 | -5.74961 | -39.07585 | 39954 ft | 480 kts | 202° |
| 2026-05-01 09:08 | -5.81242 | -39.09848 | 39956 ft | 480 kts | 202° |
| 2026-05-01 09:08 | -5.87527 | -39.12104 | 39955 ft | 480 kts | 202° |
| 2026-05-01 09:09 | -5.93814 | -39.14362 | 39958 ft | 479 kts | 202° |
| 2026-05-01 09:09 | -6.00083 | -39.16615 | 39960 ft | 478 kts | 202° |
| 2026-05-01 09:10 | -6.06340 | -39.18865 | 39962 ft | 478 kts | 202° |
| 2026-05-01 09:10 | -6.12593 | -39.21115 | 39960 ft | 478 kts | 202° |
| 2026-05-01 09:11 | -6.18849 | -39.23366 | 39965 ft | 478 kts | 202° |
| 2026-05-01 09:11 | -6.25107 | -39.25618 | 39962 ft | 478 kts | 202° |
| 2026-05-01 09:12 | -6.31360 | -39.27869 | 39966 ft | 478 kts | 202° |
| 2026-05-01 09:12 | -6.37622 | -39.30124 | 39967 ft | 478 kts | 202° |
| 2026-05-01 09:13 | -6.43835 | -39.32366 | 39969 ft | 478 kts | 202° |
| 2026-05-01 09:13 | -6.50087 | -39.34622 | 39968 ft | 477 kts | 202° |
| 2026-05-01 09:14 | -6.56327 | -39.36873 | 39966 ft | 476 kts | 202° |
| 2026-05-01 09:14 | -6.62561 | -39.39123 | 39975 ft | 476 kts | 202° |
| 2026-05-01 09:15 | -6.68797 | -39.41374 | 39974 ft | 476 kts | 202° |
| 2026-05-01 09:15 | -6.75032 | -39.43625 | 39980 ft | 476 kts | 202° |
| 2026-05-01 09:16 | -6.81258 | -39.45873 | 39984 ft | 474 kts | 203° |
| 2026-05-01 09:17 | -6.90563 | -39.49235 | 39984 ft | 474 kts | 203° |
| 2026-05-01 09:17 | -6.99860 | -39.52597 | 39991 ft | 473 kts | 203° |
| 2026-05-01 09:18 | -7.09152 | -39.55956 | 39997 ft | 472 kts | 203° |
| 2026-05-01 09:19 | -7.18404 | -39.59303 | 40007 ft | 471 kts | 203° |
| 2026-05-01 09:20 | -7.27663 | -39.62655 | 40010 ft | 471 kts | 203° |
| 2026-05-01 09:21 | -7.39987 | -39.67118 | 40018 ft | 470 kts | 203° |
| 2026-05-01 09:21 | -7.49165 | -39.70443 | 40027 ft | 469 kts | 203° |
| 2026-05-01 09:22 | -7.61495 | -39.74914 | 40021 ft | 469 kts | 202° |
| 2026-05-01 09:23 | -7.70667 | -39.78241 | 40018 ft | 469 kts | 202° |
| 2026-05-01 09:24 | -7.79879 | -39.81583 | 40015 ft | 469 kts | 202° |
| 2026-05-01 09:25 | -7.92165 | -39.86045 | 40017 ft | 470 kts | 202° |
| 2026-05-01 09:26 | -8.01429 | -39.89410 | 40017 ft | 470 kts | 202° |
| 2026-05-01 09:26 | -8.10608 | -39.92746 | 40017 ft | 470 kts | 202° |
| 2026-05-01 09:27 | -8.19836 | -39.96102 | 40019 ft | 470 kts | 201° |
| 2026-05-01 09:28 | -8.25991 | -39.98341 | 40022 ft | 470 kts | 201° |
| 2026-05-01 09:28 | -8.32147 | -40.00581 | 40019 ft | 470 kts | 201° |
| 2026-05-01 09:29 | -8.41382 | -40.03943 | 40023 ft | 470 kts | 201° |
| 2026-05-01 09:30 | -8.50628 | -40.07311 | 40025 ft | 471 kts | 201° |
| 2026-05-01 09:30 | -8.59877 | -40.10681 | 40027 ft | 471 kts | 201° |
| 2026-05-01 09:31 | -8.66040 | -40.12928 | 40028 ft | 471 kts | 201° |
| 2026-05-01 09:32 | -8.75298 | -40.16306 | 40029 ft | 472 kts | 200° |
| 2026-05-01 09:32 | -8.84539 | -40.19678 | 40029 ft | 473 kts | 200° |
| 2026-05-01 09:33 | -8.90767 | -40.21951 | 40028 ft | 473 kts | 200° |
| 2026-05-01 09:34 | -9.00047 | -40.25341 | 40027 ft | 473 kts | 200° |
| 2026-05-01 09:34 | -9.09287 | -40.28718 | 40026 ft | 473 kts | 200° |
| 2026-05-01 09:35 | -9.18573 | -40.32114 | 40022 ft | 473 kts | 200° |
| 2026-05-01 09:36 | -9.24758 | -40.34376 | 40023 ft | 473 kts | 200° |
| 2026-05-01 09:36 | -9.30948 | -40.36642 | 40023 ft | 473 kts | 200° |
| 2026-05-01 09:37 | -9.37143 | -40.38911 | 40021 ft | 473 kts | 200° |
| 2026-05-01 09:37 | -9.46435 | -40.42312 | 40023 ft | 473 kts | 200° |
| 2026-05-01 09:38 | -9.55723 | -40.45715 | 40020 ft | 472 kts | 200° |
| 2026-05-01 09:39 | -9.64987 | -40.49111 | 40025 ft | 472 kts | 200° |
| 2026-05-01 09:39 | -9.71167 | -40.51379 | 40034 ft | 473 kts | 200° |
| 2026-05-01 09:40 | -9.80439 | -40.54784 | 40041 ft | 473 kts | 200° |
| 2026-05-01 09:41 | -9.86625 | -40.57056 | 40036 ft | 472 kts | 200° |
| 2026-05-01 09:41 | -9.95862 | -40.60452 | 40041 ft | 473 kts | 200° |
| 2026-05-01 09:42 | -10.02046 | -40.62727 | 40050 ft | 473 kts | 200° |
| 2026-05-01 09:43 | -10.14445 | -40.67290 | 40054 ft | 475 kts | 200° |
| 2026-05-01 09:43 | -10.20652 | -40.69576 | 40058 ft | 475 kts | 200° |
| 2026-05-01 09:44 | -10.29972 | -40.73010 | 40056 ft | 475 kts | 200° |
| 2026-05-01 09:45 | -10.36186 | -40.75300 | 40059 ft | 475 kts | 200° |
| 2026-05-01 09:45 | -10.45504 | -40.78738 | 40058 ft | 475 kts | 200° |
| 2026-05-01 09:46 | -10.50665 | -40.80642 | 40061 ft | 475 kts | 200° |
| 2026-05-01 09:46 | -10.56879 | -40.82936 | 40064 ft | 475 kts | 200° |
| 2026-05-01 09:47 | -10.63093 | -40.85231 | 40065 ft | 475 kts | 200° |
| 2026-05-01 09:47 | -10.69308 | -40.87528 | 40065 ft | 475 kts | 200° |
| 2026-05-01 09:48 | -10.75519 | -40.89822 | 40068 ft | 475 kts | 200° |
| 2026-05-01 09:48 | -10.81733 | -40.92117 | 40071 ft | 475 kts | 200° |
| 2026-05-01 09:49 | -10.87940 | -40.94412 | 40071 ft | 474 kts | 200° |
| 2026-05-01 09:49 | -10.94137 | -40.96704 | 40075 ft | 474 kts | 200° |
| 2026-05-01 09:50 | -11.00333 | -40.98997 | 40076 ft | 474 kts | 200° |
| 2026-05-01 09:50 | -11.06526 | -41.01298 | 40080 ft | 474 kts | 200° |
| 2026-05-01 09:51 | -11.12714 | -41.03598 | 40080 ft | 472 kts | 200° |
| 2026-05-01 09:51 | -11.18864 | -41.05879 | 40086 ft | 468 kts | 200° |
| 2026-05-01 09:52 | -11.24980 | -41.08141 | 40089 ft | 469 kts | 200° |
| 2026-05-01 09:52 | -11.31107 | -41.10410 | 40091 ft | 467 kts | 200° |
| 2026-05-01 09:53 | -11.37226 | -41.12680 | 40093 ft | 469 kts | 200° |
| 2026-05-01 09:53 | -11.43351 | -41.14954 | 40099 ft | 468 kts | 200° |
| 2026-05-01 09:54 | -11.49483 | -41.17232 | 40096 ft | 469 kts | 200° |
| 2026-05-01 09:54 | -11.55607 | -41.19504 | 40099 ft | 469 kts | 200° |
| 2026-05-01 09:55 | -11.61695 | -41.21769 | 40099 ft | 468 kts | 200° |
| 2026-05-01 09:55 | -11.67823 | -41.24050 | 40109 ft | 469 kts | 200° |
| 2026-05-01 09:56 | -11.73949 | -41.26330 | 40102 ft | 468 kts | 200° |
| 2026-05-01 09:56 | -11.80081 | -41.28613 | 40109 ft | 469 kts | 200° |
| 2026-05-01 09:57 | -11.86201 | -41.30892 | 40111 ft | 469 kts | 200° |
| 2026-05-01 09:57 | -11.92336 | -41.33179 | 40112 ft | 471 kts | 200° |
| 2026-05-01 09:58 | -11.98501 | -41.35477 | 40109 ft | 472 kts | 200° |
| 2026-05-01 09:58 | -12.04644 | -41.37769 | 40109 ft | 468 kts | 199° |
| 2026-05-01 09:59 | -12.10771 | -41.40056 | 40116 ft | 469 kts | 199° |
| 2026-05-01 09:59 | -12.16888 | -41.42340 | 40117 ft | 469 kts | 199° |
| 2026-05-01 10:00 | -12.23026 | -41.44633 | 40114 ft | 470 kts | 199° |
| 2026-05-01 10:00 | -12.29167 | -41.46928 | 40116 ft | 471 kts | 199° |
| 2026-05-01 10:01 | -12.35315 | -41.49226 | 40116 ft | 470 kts | 199° |
| 2026-05-01 10:01 | -12.41461 | -41.51526 | 40111 ft | 471 kts | 200° |
| 2026-05-01 10:02 | -12.47631 | -41.53836 | 40117 ft | 473 kts | 200° |
| 2026-05-01 10:02 | -12.53824 | -41.56155 | 40120 ft | 474 kts | 200° |
| 2026-05-01 10:03 | -12.60013 | -41.58474 | 40129 ft | 474 kts | 199° |
| 2026-05-01 10:03 | -12.66203 | -41.60794 | 40128 ft | 474 kts | 199° |
| 2026-05-01 10:04 | -12.72386 | -41.63113 | 40137 ft | 473 kts | 199° |
| 2026-05-01 10:04 | -12.78571 | -41.65435 | 40137 ft | 473 kts | 199° |
| 2026-05-01 10:05 | -12.84750 | -41.67755 | 40139 ft | 473 kts | 199° |
| 2026-05-01 10:05 | -12.90932 | -41.70077 | 40137 ft | 473 kts | 199° |
| 2026-05-01 10:06 | -12.97119 | -41.72403 | 40139 ft | 473 kts | 199° |
| 2026-05-01 10:06 | -13.03263 | -41.74714 | 40141 ft | 473 kts | 199° |
| 2026-05-01 10:07 | -13.09449 | -41.77041 | 40143 ft | 473 kts | 200° |
| 2026-05-01 10:07 | -13.15626 | -41.79368 | 40142 ft | 472 kts | 199° |
| 2026-05-01 10:08 | -13.24837 | -41.82838 | 40139 ft | 470 kts | 199° |
| 2026-05-01 10:09 | -13.30970 | -41.85150 | 40137 ft | 469 kts | 199° |
| 2026-05-01 10:09 | -13.37111 | -41.87467 | 40133 ft | 470 kts | 199° |
| 2026-05-01 10:10 | -13.43241 | -41.89779 | 40132 ft | 471 kts | 200° |
| 2026-05-01 10:10 | -13.52495 | -41.93273 | 40126 ft | 473 kts | 200° |
| 2026-05-01 10:11 | -13.58676 | -41.95610 | 40126 ft | 473 kts | 200° |
| 2026-05-01 10:11 | -13.64858 | -41.97950 | 40121 ft | 473 kts | 200° |
| 2026-05-01 10:12 | -13.69988 | -41.99892 | 40116 ft | 473 kts | 200° |
| 2026-05-01 10:13 | -13.80276 | -42.03790 | 40118 ft | 472 kts | 200° |
| 2026-05-01 10:13 | -13.86435 | -42.06126 | 40120 ft | 472 kts | 200° |
| 2026-05-01 10:14 | -13.95677 | -42.09633 | 40121 ft | 472 kts | 200° |
| 2026-05-01 10:14 | -14.01846 | -42.11975 | 40124 ft | 472 kts | 200° |
| 2026-05-01 10:15 | -14.08016 | -42.14319 | 40121 ft | 472 kts | 200° |
| 2026-05-01 10:15 | -14.14182 | -42.16664 | 40123 ft | 472 kts | 200° |
| 2026-05-01 10:16 | -14.20350 | -42.19010 | 40122 ft | 472 kts | 200° |
| 2026-05-01 10:17 | -14.29599 | -42.22530 | 40123 ft | 472 kts | 200° |
| 2026-05-01 10:17 | -14.38821 | -42.25974 | 40124 ft | 472 kts | 197° |
| 2026-05-01 10:18 | -14.48309 | -42.28678 | 40128 ft | 472 kts | 194° |
| 2026-05-01 10:19 | -14.54646 | -42.30449 | 40133 ft | 472 kts | 195° |
| 2026-05-01 10:19 | -14.60970 | -42.32283 | 40132 ft | 472 kts | 195° |
| 2026-05-01 10:20 | -14.70440 | -42.35075 | 40138 ft | 472 kts | 195° |
| 2026-05-01 10:20 | -14.76754 | -42.36938 | 40134 ft | 472 kts | 195° |
| 2026-05-01 10:21 | -14.86217 | -42.39730 | 40138 ft | 472 kts | 195° |
| 2026-05-01 10:22 | -14.95680 | -42.42524 | 40143 ft | 471 kts | 195° |
| 2026-05-01 10:23 | -15.05102 | -42.45307 | 40144 ft | 471 kts | 195° |
| 2026-05-01 10:23 | -15.14558 | -42.48102 | 40144 ft | 472 kts | 195° |
| 2026-05-01 10:24 | -15.27218 | -42.51850 | 40148 ft | 473 kts | 195° |
| 2026-05-01 10:25 | -15.39880 | -42.55603 | 40143 ft | 473 kts | 195° |
| 2026-05-01 10:26 | -15.46202 | -42.57478 | 40148 ft | 473 kts | 195° |
| 2026-05-01 10:27 | -15.58848 | -42.61234 | 40145 ft | 473 kts | 195° |
| 2026-05-01 10:28 | -15.68295 | -42.64042 | 40138 ft | 469 kts | 195° |
| 2026-05-01 10:28 | -15.77715 | -42.66845 | 40137 ft | 469 kts | 195° |
| 2026-05-01 10:29 | -15.87131 | -42.69650 | 40141 ft | 470 kts | 195° |
| 2026-05-01 10:30 | -15.99737 | -42.73409 | 40155 ft | 472 kts | 195° |
| 2026-05-01 10:31 | -16.12377 | -42.77183 | 40155 ft | 473 kts | 195° |
| 2026-05-01 10:32 | -16.21866 | -42.80020 | 40147 ft | 473 kts | 195° |
| 2026-05-01 10:33 | -16.34511 | -42.83807 | 40144 ft | 473 kts | 196° |
| 2026-05-01 10:34 | -16.42923 | -42.86329 | 40139 ft | 472 kts | 196° |
| 2026-05-01 10:34 | -16.49236 | -42.88220 | 40152 ft | 472 kts | 196° |
| 2026-05-01 10:35 | -16.58698 | -42.91058 | 40156 ft | 472 kts | 196° |
| 2026-05-01 10:35 | -16.65004 | -42.92953 | 40153 ft | 472 kts | 196° |
| 2026-05-01 10:36 | -16.74461 | -42.95797 | 40155 ft | 471 kts | 196° |
| 2026-05-01 10:37 | -16.80769 | -42.97695 | 40147 ft | 472 kts | 196° |
| 2026-05-01 10:37 | -16.90215 | -43.00540 | 40157 ft | 471 kts | 196° |
| 2026-05-01 10:38 | -16.96515 | -43.02439 | 40160 ft | 471 kts | 196° |
| 2026-05-01 10:38 | -17.02808 | -43.04338 | 40166 ft | 471 kts | 196° |
| 2026-05-01 10:39 | -17.09092 | -43.06235 | 40172 ft | 470 kts | 196° |
| 2026-05-01 10:39 | -17.15381 | -43.08134 | 40171 ft | 470 kts | 196° |
| 2026-05-01 10:40 | -17.21628 | -43.10023 | 40169 ft | 470 kts | 196° |
| 2026-05-01 10:40 | -17.27950 | -43.11936 | 40167 ft | 470 kts | 196° |
| 2026-05-01 10:41 | -17.34204 | -43.13829 | 40163 ft | 472 kts | 196° |
| 2026-05-01 10:42 | -17.43681 | -43.16700 | 40153 ft | 473 kts | 196° |
| 2026-05-01 10:42 | -17.49994 | -43.18615 | 40164 ft | 473 kts | 196° |
| 2026-05-01 10:43 | -17.56310 | -43.20535 | 40170 ft | 473 kts | 197° |
| 2026-05-01 10:43 | -17.62629 | -43.22456 | 40175 ft | 473 kts | 197° |
| 2026-05-01 10:44 | -17.68954 | -43.24374 | 40174 ft | 473 kts | 197° |
| 2026-05-01 10:44 | -17.75274 | -43.26294 | 40174 ft | 473 kts | 197° |
| 2026-05-01 10:45 | -17.81595 | -43.28217 | 40178 ft | 473 kts | 197° |
| 2026-05-01 10:45 | -17.87921 | -43.30144 | 40165 ft | 473 kts | 197° |
| 2026-05-01 10:46 | -17.94245 | -43.32072 | 40179 ft | 473 kts | 197° |
| 2026-05-01 10:46 | -18.00567 | -43.33999 | 40172 ft | 473 kts | 197° |
| 2026-05-01 10:47 | -18.06889 | -43.35929 | 40176 ft | 473 kts | 197° |
| 2026-05-01 10:47 | -18.13243 | -43.37870 | 40174 ft | 480 kts | 197° |
| 2026-05-01 10:48 | -18.19705 | -43.39847 | 40189 ft | 487 kts | 197° |
| 2026-05-01 10:48 | -18.26057 | -43.42369 | 40176 ft | 490 kts | 207° |
| 2026-05-01 10:49 | -18.32128 | -43.45657 | 40181 ft | 491 kts | 209° |
| 2026-05-01 10:49 | -18.38146 | -43.49072 | 40183 ft | 492 kts | 209° |
| 2026-05-01 10:50 | -18.44158 | -43.52498 | 40185 ft | 492 kts | 209° |
| 2026-05-01 10:50 | -18.50179 | -43.55913 | 40202 ft | 491 kts | 209° |
| 2026-05-01 10:51 | -18.56191 | -43.59319 | 40199 ft | 491 kts | 209° |
| 2026-05-01 10:51 | -18.62207 | -43.62730 | 40196 ft | 491 kts | 209° |
| 2026-05-01 10:52 | -18.68221 | -43.66144 | 40183 ft | 491 kts | 210° |
| 2026-05-01 10:52 | -18.74234 | -43.69560 | 40180 ft | 491 kts | 210° |
| 2026-05-01 10:53 | -18.80247 | -43.72978 | 40181 ft | 491 kts | 210° |
| 2026-05-01 10:53 | -18.86215 | -43.76374 | 40178 ft | 490 kts | 210° |
| 2026-05-01 10:54 | -18.92221 | -43.79793 | 40177 ft | 490 kts | 210° |
| 2026-05-01 10:54 | -18.98223 | -43.83214 | 40171 ft | 490 kts | 210° |
| 2026-05-01 10:55 | -19.04238 | -43.86644 | 40166 ft | 491 kts | 210° |
| 2026-05-01 10:55 | -19.10245 | -43.90073 | 40170 ft | 491 kts | 210° |
| 2026-05-01 10:56 | -19.16254 | -43.93506 | 40169 ft | 490 kts | 210° |
| 2026-05-01 10:56 | -19.22257 | -43.96939 | 40167 ft | 490 kts | 210° |
| 2026-05-01 10:57 | -19.28254 | -44.00371 | 40170 ft | 490 kts | 210° |
| 2026-05-01 10:57 | -19.34251 | -44.03806 | 40186 ft | 490 kts | 210° |
| 2026-05-01 10:58 | -19.40246 | -44.07242 | 40168 ft | 490 kts | 210° |
| 2026-05-01 10:58 | -19.46244 | -44.10683 | 40171 ft | 490 kts | 210° |
| 2026-05-01 10:59 | -19.52239 | -44.14126 | 40172 ft | 490 kts | 210° |
| 2026-05-01 10:59 | -19.58232 | -44.17569 | 40172 ft | 490 kts | 210° |
| 2026-05-01 11:00 | -19.64219 | -44.21013 | 40174 ft | 490 kts | 210° |
| 2026-05-01 11:00 | -19.70208 | -44.24461 | 40178 ft | 490 kts | 210° |
| 2026-05-01 11:01 | -19.76191 | -44.27908 | 40183 ft | 489 kts | 210° |
| 2026-05-01 11:01 | -19.82175 | -44.31359 | 40177 ft | 489 kts | 210° |
| 2026-05-01 11:02 | -19.88153 | -44.34809 | 40182 ft | 489 kts | 210° |
| 2026-05-01 11:02 | -19.94130 | -44.38262 | 40185 ft | 489 kts | 211° |
| 2026-05-01 11:03 | -20.00100 | -44.41713 | 40184 ft | 488 kts | 211° |
| 2026-05-01 11:03 | -20.06066 | -44.45167 | 40184 ft | 488 kts | 211° |
| 2026-05-01 11:04 | -20.12027 | -44.48629 | 40183 ft | 488 kts | 212° |
| 2026-05-01 11:04 | -20.17601 | -44.52622 | 40184 ft | 485 kts | 218° |
| 2026-05-01 11:05 | -20.23059 | -44.56835 | 40182 ft | 485 kts | 218° |
| 2026-05-01 11:05 | -20.28490 | -44.61085 | 40184 ft | 485 kts | 218° |
| 2026-05-01 11:06 | -20.33929 | -44.65337 | 40184 ft | 485 kts | 218° |
| 2026-05-01 11:06 | -20.39367 | -44.69582 | 40186 ft | 484 kts | 218° |
| 2026-05-01 11:07 | -20.47518 | -44.75947 | 40186 ft | 484 kts | 218° |
| 2026-05-01 11:07 | -20.52952 | -44.80197 | 40188 ft | 484 kts | 219° |
| 2026-05-01 11:08 | -20.58381 | -44.84435 | 40189 ft | 484 kts | 219° |
| 2026-05-01 11:09 | -20.66529 | -44.90801 | 40186 ft | 484 kts | 219° |
| 2026-05-01 11:09 | -20.71953 | -44.95047 | 40187 ft | 483 kts | 219° |
| 2026-05-01 11:10 | -20.80069 | -45.01421 | 40188 ft | 482 kts | 219° |
| 2026-05-01 11:10 | -20.85469 | -45.05670 | 40186 ft | 482 kts | 219° |
| 2026-05-01 11:11 | -20.90876 | -45.09931 | 40185 ft | 482 kts | 219° |
| 2026-05-01 11:11 | -20.96273 | -45.14184 | 40186 ft | 482 kts | 219° |
| 2026-05-01 11:12 | -21.01648 | -45.18416 | 40185 ft | 482 kts | 219° |
| 2026-05-01 11:12 | -21.07049 | -45.22673 | 40187 ft | 482 kts | 219° |
| 2026-05-01 11:13 | -21.12446 | -45.26934 | 40187 ft | 482 kts | 219° |
| 2026-05-01 11:13 | -21.17840 | -45.31196 | 40184 ft | 482 kts | 219° |
| 2026-05-01 11:14 | -21.23231 | -45.35460 | 40189 ft | 482 kts | 219° |
| 2026-05-01 11:14 | -21.28624 | -45.39730 | 40194 ft | 481 kts | 219° |
| 2026-05-01 11:15 | -21.34007 | -45.43996 | 40190 ft | 481 kts | 219° |
| 2026-05-01 11:15 | -21.39383 | -45.48260 | 40190 ft | 480 kts | 219° |
| 2026-05-01 11:16 | -21.44758 | -45.52528 | 40191 ft | 480 kts | 219° |
| 2026-05-01 11:16 | -21.47435 | -45.54655 | 40033 ft | 479 kts | 219° |
| 2026-05-01 11:16 | -21.50120 | -45.56790 | 39799 ft | 480 kts | 219° |
| 2026-05-01 11:17 | -21.52808 | -45.58923 | 39562 ft | 482 kts | 219° |
| 2026-05-01 11:17 | -21.55515 | -45.61050 | 39343 ft | 483 kts | 219° |
| 2026-05-01 11:17 | -21.58232 | -45.63178 | 39135 ft | 484 kts | 219° |
| 2026-05-01 11:17 | -21.60942 | -45.65298 | 38786 ft | 480 kts | 219° |
| 2026-05-01 11:18 | -21.63642 | -45.67413 | 38046 ft | 482 kts | 219° |
| 2026-05-01 11:18 | -21.66357 | -45.69544 | 37260 ft | 485 kts | 219° |
| 2026-05-01 11:18 | -21.69095 | -45.71696 | 36520 ft | 489 kts | 219° |
| 2026-05-01 11:18 | -21.71849 | -45.73864 | 35851 ft | 492 kts | 219° |
| 2026-05-01 11:19 | -21.74613 | -45.76041 | 35179 ft | 494 kts | 219° |
| 2026-05-01 11:19 | -21.77384 | -45.78224 | 34465 ft | 492 kts | 219° |
| 2026-05-01 11:19 | -21.80136 | -45.80392 | 33793 ft | 488 kts | 219° |
| 2026-05-01 11:19 | -21.82863 | -45.82540 | 33201 ft | 483 kts | 219° |
| 2026-05-01 11:20 | -21.85563 | -45.84669 | 32626 ft | 479 kts | 219° |
| 2026-05-01 11:20 | -21.88234 | -45.86777 | 32045 ft | 474 kts | 218° |
| 2026-05-01 11:20 | -21.90884 | -45.88869 | 31476 ft | 471 kts | 219° |
| 2026-05-01 11:20 | -21.93514 | -45.90947 | 30918 ft | 467 kts | 219° |
| 2026-05-01 11:21 | -21.95246 | -45.92318 | 30539 ft | 465 kts | 219° |
| 2026-05-01 11:21 | -21.98681 | -45.95035 | 29746 ft | 460 kts | 219° |
| 2026-05-01 11:21 | -22.00421 | -45.96412 | 29365 ft | 457 kts | 219° |
| 2026-05-01 11:21 | -22.02968 | -45.98427 | 28811 ft | 453 kts | 219° |
| 2026-05-01 11:22 | -22.06309 | -46.01073 | 28084 ft | 447 kts | 219° |
| 2026-05-01 11:22 | -22.08800 | -46.03046 | 27539 ft | 443 kts | 218° |
| 2026-05-01 11:22 | -22.10471 | -46.04371 | 27174 ft | 440 kts | 218° |
| 2026-05-01 11:22 | -22.12928 | -46.06320 | 26621 ft | 437 kts | 218° |
| 2026-05-01 11:23 | -22.15366 | -46.08255 | 26083 ft | 433 kts | 218° |
| 2026-05-01 11:23 | -22.17786 | -46.10179 | 25515 ft | 431 kts | 218° |
| 2026-05-01 11:23 | -22.20189 | -46.12090 | 24959 ft | 428 kts | 218° |
| 2026-05-01 11:23 | -22.22582 | -46.13991 | 24401 ft | 426 kts | 218° |
| 2026-05-01 11:24 | -22.24965 | -46.15883 | 23859 ft | 424 kts | 218° |
| 2026-05-01 11:24 | -22.27327 | -46.17762 | 23250 ft | 421 kts | 218° |
| 2026-05-01 11:24 | -22.32204 | -46.21141 | 22114 ft | 416 kts | 202° |
| 2026-05-01 11:25 | -22.35005 | -46.21871 | 21609 ft | 414 kts | 191° |
| 2026-05-01 11:25 | -22.40598 | -46.22722 | 20646 ft | 404 kts | 190° |
| 2026-05-01 11:25 | -22.43368 | -46.23135 | 20165 ft | 399 kts | 190° |
| 2026-05-01 11:26 | -22.46103 | -46.23551 | 19687 ft | 395 kts | 190° |
| 2026-05-01 11:26 | -22.51491 | -46.24377 | 18747 ft | 387 kts | 190° |
| 2026-05-01 11:26 | -22.54146 | -46.24788 | 18260 ft | 384 kts | 190° |
| 2026-05-01 11:27 | -22.56778 | -46.25200 | 17957 ft | 381 kts | 190° |
| 2026-05-01 11:27 | -22.59409 | -46.25609 | 17754 ft | 381 kts | 190° |
| 2026-05-01 11:27 | -22.62031 | -46.26015 | 17554 ft | 380 kts | 190° |
| 2026-05-01 11:27 | -22.64644 | -46.26420 | 17330 ft | 379 kts | 190° |
| 2026-05-01 11:28 | -22.67252 | -46.26825 | 17116 ft | 378 kts | 190° |
| 2026-05-01 11:28 | -22.69851 | -46.27228 | 16899 ft | 377 kts | 190° |
| 2026-05-01 11:28 | -22.72442 | -46.27631 | 16686 ft | 375 kts | 190° |
| 2026-05-01 11:29 | -22.77580 | -46.28525 | 16255 ft | 372 kts | 197° |
| 2026-05-01 11:29 | -22.79943 | -46.29615 | 16046 ft | 366 kts | 211° |
| 2026-05-01 11:29 | -22.84111 | -46.32405 | 15685 ft | 336 kts | 218° |
| 2026-05-01 11:30 | -22.85630 | -46.34176 | 15478 ft | 311 kts | 240° |
| 2026-05-01 11:30 | -22.86350 | -46.36368 | 15262 ft | 311 kts | 264° |
| 2026-05-01 11:30 | -22.86184 | -46.38700 | 15214 ft | 314 kts | 287° |
| 2026-05-01 11:30 | -22.85326 | -46.40867 | 15202 ft | 313 kts | 295° |
| 2026-05-01 11:31 | -22.84443 | -46.43023 | 15180 ft | 313 kts | 289° |
| 2026-05-01 11:31 | -22.83921 | -46.45310 | 15195 ft | 313 kts | 281° |
| 2026-05-01 11:31 | -22.83556 | -46.47639 | 15190 ft | 313 kts | 279° |
| 2026-05-01 11:31 | -22.83213 | -46.49972 | 15174 ft | 313 kts | 279° |
| 2026-05-01 11:32 | -22.82872 | -46.52302 | 15176 ft | 313 kts | 279° |
| 2026-05-01 11:32 | -22.82755 | -46.54661 | 15169 ft | 314 kts | 268° |
| 2026-05-01 11:32 | -22.82892 | -46.57028 | 15181 ft | 315 kts | 266° |
| 2026-05-01 11:32 | -22.83070 | -46.59387 | 15171 ft | 314 kts | 266° |
| 2026-05-01 11:33 | -22.83260 | -46.61743 | 15167 ft | 314 kts | 264° |
| 2026-05-01 11:33 | -22.83721 | -46.64059 | 15183 ft | 315 kts | 255° |
| 2026-05-01 11:33 | -22.84368 | -46.66324 | 15171 ft | 315 kts | 253° |
| 2026-05-01 11:33 | -22.85037 | -46.68580 | 15170 ft | 314 kts | 253° |
| 2026-05-01 11:34 | -22.85711 | -46.70838 | 15169 ft | 315 kts | 252° |
| 2026-05-01 11:34 | -22.86634 | -46.72989 | 15170 ft | 316 kts | 241° |
| 2026-05-01 11:34 | -22.87759 | -46.74999 | 15164 ft | 316 kts | 239° |
| 2026-05-01 11:34 | -22.88950 | -46.77002 | 15162 ft | 317 kts | 236° |
| 2026-05-01 11:35 | -22.90492 | -46.78706 | 15078 ft | 319 kts | 216° |
| 2026-05-01 11:35 | -22.92536 | -46.79627 | 14671 ft | 322 kts | 190° |
| 2026-05-01 11:35 | -22.94755 | -46.79504 | 14300 ft | 321 kts | 165° |
| 2026-05-01 11:35 | -22.96727 | -46.78401 | 13955 ft | 321 kts | 140° |
| 2026-05-01 11:36 | -22.98118 | -46.76524 | 13563 ft | 321 kts | 117° |
| 2026-05-01 11:36 | -22.99263 | -46.74461 | 13242 ft | 320 kts | 128° |
| 2026-05-01 11:36 | -23.00823 | -46.72754 | 12922 ft | 317 kts | 140° |
| 2026-05-01 11:36 | -23.02513 | -46.71221 | 12606 ft | 315 kts | 141° |
| 2026-05-01 11:37 | -23.04210 | -46.69723 | 12286 ft | 313 kts | 141° |
| 2026-05-01 11:37 | -23.05891 | -46.68239 | 11959 ft | 311 kts | 141° |
| 2026-05-01 11:37 | -23.07567 | -46.66758 | 11633 ft | 310 kts | 141° |
| 2026-05-01 11:37 | -23.09230 | -46.65286 | 11331 ft | 308 kts | 141° |
| 2026-05-01 11:38 | -23.10882 | -46.63822 | 11018 ft | 306 kts | 142° |
| 2026-05-01 11:38 | -23.12518 | -46.62369 | 10802 ft | 299 kts | 142° |
| 2026-05-01 11:38 | -23.14098 | -46.60967 | 10629 ft | 288 kts | 142° |
| 2026-05-01 11:38 | -23.15633 | -46.59606 | 10338 ft | 284 kts | 142° |
| 2026-05-01 11:39 | -23.17155 | -46.58255 | 10037 ft | 280 kts | 141° |
| 2026-05-01 11:39 | -23.18663 | -46.56941 | 9731 ft | 275 kts | 144° |
| 2026-05-01 11:39 | -23.20364 | -46.56043 | 9461 ft | 272 kts | 169° |
| 2026-05-01 11:39 | -23.22220 | -46.56116 | 9119 ft | 269 kts | 198° |
| 2026-05-01 11:40 | -23.23876 | -46.57027 | 8708 ft | 267 kts | 214° |
| 2026-05-01 11:40 | -23.25423 | -46.58141 | 8402 ft | 267 kts | 216° |
| 2026-05-01 11:40 | -23.26963 | -46.59268 | 8156 ft | 266 kts | 216° |
| 2026-05-01 11:40 | -23.28505 | -46.60387 | 7862 ft | 267 kts | 215° |
| 2026-05-01 11:41 | -23.30036 | -46.61485 | 7543 ft | 266 kts | 214° |
| 2026-05-01 11:41 | -23.31601 | -46.62602 | 7309 ft | 266 kts | 214° |
| 2026-05-01 11:41 | -23.33147 | -46.63701 | 7102 ft | 265 kts | 214° |
| 2026-05-01 11:41 | -23.34662 | -46.64777 | 6909 ft | 266 kts | 214° |
| 2026-05-01 11:42 | -23.36213 | -46.65880 | 6706 ft | 266 kts | 214° |
| 2026-05-01 11:42 | -23.37760 | -46.66982 | 6519 ft | 266 kts | 214° |
| 2026-05-01 11:42 | -23.39306 | -46.68081 | 6303 ft | 264 kts | 214° |
| 2026-05-01 11:42 | -23.40920 | -46.68944 | 6135 ft | 254 kts | 195° |
| 2026-05-01 11:43 | -23.42632 | -46.68969 | 5998 ft | 242 kts | 163° |
| 2026-05-01 11:43 | -23.44059 | -46.68147 | 5801 ft | 225 kts | 134° |
| 2026-05-01 11:43 | -23.45021 | -46.66895 | 5580 ft | 209 kts | 121° |
| 2026-05-01 11:44 | -23.46590 | -46.64344 | 5011 ft | 203 kts | 121° |
| 2026-05-01 11:44 | -23.47185 | -46.62979 | 4916 ft | 199 kts | 93° |
| 2026-05-01 11:44 | -23.47214 | -46.61508 | 4835 ft | 191 kts | 85° |
| 2026-05-01 11:44 | -23.46943 | -46.60119 | 4601 ft | 186 kts | 68° |
| 2026-05-01 11:45 | -23.46564 | -46.58786 | 4338 ft | 185 kts | 75° |
| 2026-05-01 11:45 | -23.46231 | -46.57451 | 4121 ft | 178 kts | 73° |
| 2026-05-01 11:45 | -23.45893 | -46.56201 | 3900 ft | 166 kts | 73° |
| 2026-05-01 11:45 | -23.45582 | -46.55034 | 3706 ft | 155 kts | 73° |
| 2026-05-01 11:46 | -23.45285 | -46.53925 | 3506 ft | 152 kts | 73° |
| 2026-05-01 11:46 | -23.44990 | -46.52833 | 3304 ft | 147 kts | 74° |
| 2026-05-01 11:46 | -23.44709 | -46.51785 | 3112 ft | 140 kts | 74° |
| 2026-05-01 11:46 | -23.44442 | -46.50789 | 2923 ft | 136 kts | 75° |
| 2026-05-01 11:47 | -23.44185 | -46.49803 | 2702 ft | 133 kts | 73° |
| 2026-05-01 11:47 | -23.43914 | -46.48827 | 2535 ft | 137 kts | 73° |
| 2026-05-01 11:47 | -23.43649 | -46.47844 | 2476 ft | 128 kts | 74° |
| 2026-05-01 11:47 | -23.43459 | -46.47136 | 2478 ft | 56 kts | 73° |
| 2026-05-01 11:48 | -23.43378 | -46.46833 | 2476 ft | 39 kts | 73° |
| 2026-05-01 11:48 | -23.43303 | -46.46559 | 2476 ft | 36 kts | 73° |
| 2026-05-01 11:48 | -23.43229 | -46.46384 | 2476 ft | 22 kts | 51° |
| 2026-05-01 11:48 | -23.43120 | -46.46259 | 2475 ft | 24 kts | 44° |
| 2026-05-01 11:49 | -23.43038 | -46.46174 | 2475 ft | 12 kts | 44° |
| 2026-05-01 11:49 | -23.42957 | -46.46136 | 2477 ft | 14 kts | 358° |
| 2026-05-01 11:49 | -23.42864 | -46.46163 | 2476 ft | 12 kts | 343° |
| 2026-05-01 11:49 | -23.42779 | -46.46190 | 2477 ft | 14 kts | 344° |
| 2026-05-01 11:50 | -23.42676 | -46.46225 | 2475 ft | 12 kts | 340° |
| 2026-05-01 11:50 | -23.42622 | -46.46276 | 2475 ft | 11 kts | 282° |
| 2026-05-01 11:50 | -23.42638 | -46.46368 | 2477 ft | 14 kts | 254° |
| 2026-05-01 11:50 | -23.42667 | -46.46476 | 2477 ft | 16 kts | 253° |
| 2026-05-01 11:51 | -23.42699 | -46.46591 | 2477 ft | 17 kts | 253° |
| 2026-05-01 11:51 | -23.42734 | -46.46722 | 2475 ft | 19 kts | 254° |
| 2026-05-01 11:51 | -23.42774 | -46.46869 | 2475 ft | 21 kts | 253° |
| 2026-05-01 11:51 | -23.42818 | -46.47033 | 2475 ft | 24 kts | 253° |
| 2026-05-01 11:52 | -23.42866 | -46.47212 | 2478 ft | 26 kts | 253° |
| 2026-05-01 11:52 | -23.42907 | -46.47361 | 2474 ft | 14 kts | 253° |
| 2026-05-01 11:52 | -23.42922 | -46.47449 | 2474 ft | 8 kts | 293° |
| 2026-05-01 11:52 | -23.42865 | -46.47489 | 2476 ft | 11 kts | 339° |
| 2026-05-01 11:53 | -23.42813 | -46.47506 | 2477 ft | 5 kts | 344° |
| 2026-05-01 11:53 | -23.42787 | -46.47492 | 2479 ft | 3 kts | 61° |
| 2026-05-01 11:53 | -23.42777 | -46.47457 | 2477 ft | 6 kts | 73° |
| 2026-05-01 11:53 | -23.42770 | -46.47432 | 2474 ft | 0 kts | 73° |
| 2026-05-01 11:54 | -23.42770 | -46.47430 | 2474 ft | 1 kts | 73° |
| 2026-05-01 11:54 | -23.42766 | -46.47417 | 2474 ft | 3 kts | 73° |
| 2026-05-01 11:54 | -23.42763 | -46.47404 | 2477 ft | 0 kts | 73° |